Time;durP1;ratioP1;P1;durP2;ratioP2;P2;SDS_P1;SDS_P2;PMS_P1;PMS_P2;Temp;Humidity;BMP_temperature;BMP_pressure;BME280_temperature;BME280_humidity;BME280_pressure;Samples;Min_cycle;Max_cycle;Signal;HPM_P1;HPM_P2
2022/01/06 00:01:57;;;;;;;;;0.00;0.00;;;;;17.09;55.29;101673.31;5012037;28;9242;-38
2022/01/06 00:04:22;;;;;;;;;0.00;0.00;;;;;17.10;55.23;101672.44;5013248;28;9542;-38
2022/01/06 00:06:48;;;;;;;;;0.67;0.67;;;;;17.06;55.03;101676.78;5013268;28;8793;-38
2022/01/06 00:09:16;;;;;;;;;0.00;0.00;;;;;17.06;54.93;101686.50;5012502;28;8789;-38
2022/01/06 00:11:42;;;;;;;;;0.00;0.00;;;;;17.07;55.33;101680.31;5012649;28;8785;-38
2022/01/06 00:17:03;;;;;;;;;0.00;0.00;;;;;17.05;55.37;101684.72;5012682;28;9408;-38
2022/01/06 00:24:50;;;;;;;;;0.00;0.00;;;;;17.03;55.18;101684.69;5012491;28;9119;-38
2022/01/06 00:27:15;;;;;;;;;0.00;0.00;;;;;17.03;55.41;101682.06;5012652;28;9130;-39
2022/01/06 00:29:41;;;;;;;;;0.00;0.00;;;;;17.03;55.26;101686.44;5011723;28;8782;-38
2022/01/06 00:32:07;;;;;;;;;0.00;0.00;;;;;17.02;55.29;101682.06;5012855;28;9560;-38
2022/01/06 00:34:35;;;;;;;;;0.00;0.00;;;;;16.99;55.19;101690.81;5012514;28;9115;-38
2022/01/06 00:37:02;;;;;;;;;0.00;0.00;;;;;17.00;55.21;101689.06;5011868;28;8828;-39
2022/01/06 00:39:28;;;;;;;;;0.00;0.00;;;;;17.02;55.14;101693.47;5012237;28;9170;-38
2022/01/06 00:41:56;;;;;;;;;1.00;0.00;;;;;17.01;55.36;101694.34;5012117;28;9032;-38
2022/01/06 00:44:22;;;;;;;;;0.00;0.00;;;;;16.98;55.22;101699.63;5011956;28;9289;-38
2022/01/06 00:46:47;;;;;;;;;0.00;0.00;;;;;16.98;55.22;101696.09;5012154;28;9296;-38
2022/01/06 00:49:13;;;;;;;;;1.00;0.00;;;;;16.95;55.05;101693.41;5011759;28;8786;-38
2022/01/06 00:51:38;;;;;;;;;0.00;0.00;;;;;16.96;55.29;101693.44;5012436;28;8778;-39
2022/01/06 00:54:03;;;;;;;;;1.00;0.00;;;;;16.97;55.28;101695.19;5012060;28;8888;-38
2022/01/06 00:56:28;;;;;;;;;0.00;0.00;;;;;16.94;55.50;101697.81;5011558;28;10308;-38
2022/01/06 00:58:54;;;;;;;;;0.00;0.00;;;;;16.95;55.44;101693.41;5011982;28;8826;-38
2022/01/06 01:01:19;;;;;;;;;1.00;0.00;;;;;16.93;55.39;101696.03;5012142;28;8786;-38
2022/01/06 01:03:45;;;;;;;;;1.00;0.33;;;;;16.94;55.59;101696.94;5011166;28;8824;-37
2022/01/06 01:06:10;;;;;;;;;0.00;0.00;;;;;16.92;55.49;101700.44;5012075;28;8777;-39
2022/01/06 01:08:38;;;;;;;;;1.00;0.00;;;;;16.91;55.39;101696.00;5011969;28;9530;-39
2022/01/06 01:11:03;;;;;;;;;0.00;0.00;;;;;16.90;55.24;101709.22;5011136;28;8908;-39
2022/01/06 01:13:31;;;;;;;;;0.00;0.00;;;;;16.91;55.61;101718.88;5012059;28;9032;-38
2022/01/06 01:16:07;;;;;;;;;0.00;0.00;;;;;16.91;55.53;101724.13;5011677;28;8801;-38
2022/01/06 01:18:32;;;;;;;;;0.00;0.00;;;;;16.89;55.27;101726.78;5011274;28;9288;-39
2022/01/06 01:20:57;;;;;;;;;0.00;0.00;;;;;16.89;55.59;101726.78;5011753;28;9181;-38
2022/01/06 01:23:28;;;;;;;;;1.00;0.00;;;;;16.87;55.67;101725.88;5011910;28;8782;-39
2022/01/06 01:25:54;;;;;;;;;0.00;0.00;;;;;16.87;55.51;101728.50;5010997;28;9595;-39
2022/01/06 01:28:19;;;;;;;;;1.00;1.00;;;;;16.88;55.35;101734.66;5011776;28;9031;-38
2022/01/06 01:33:30;;;;;;;;;1.00;1.00;;;;;16.87;55.37;101727.66;5010795;28;8924;-38
2022/01/06 01:35:56;;;;;;;;;0.00;0.00;;;;;16.88;55.56;101729.38;5011499;28;9004;-38
2022/01/06 01:38:24;;;;;;;;;0.00;0.00;;;;;16.88;55.53;101732.91;5011418;28;9960;-39
2022/01/06 01:40:49;;;;;;;;;1.00;0.00;;;;;16.89;55.64;101739.97;5011472;28;8827;-38
2022/01/06 01:43:17;;;;;;;;;0.00;0.00;;;;;16.89;55.68;101757.53;5011747;28;9786;-39
2022/01/06 01:45:46;;;;;;;;;0.00;0.00;;;;;16.90;55.46;101748.78;5010315;28;8879;-38
2022/01/06 01:48:19;;;;;;;;;1.00;0.00;;;;;16.90;55.51;101746.13;5011296;28;9119;-38
2022/01/06 01:50:44;;;;;;;;;0.00;0.00;;;;;16.89;55.54;101744.34;5011283;28;9011;-39
2022/01/06 01:53:10;;;;;;;;;0.00;0.00;;;;;16.88;55.74;101751.38;5010938;28;9095;-37
2022/01/06 01:55:36;;;;;;;;;0.00;0.00;;;;;16.87;55.61;101749.59;5011338;28;8798;-38
2022/01/06 01:58:03;;;;;;;;;0.67;0.67;;;;;16.86;55.80;101753.13;5012471;28;8817;-38
2022/01/06 02:00:30;;;;;;;;;0.00;0.00;;;;;16.87;55.78;101754.03;5014777;28;9106;-39
2022/01/06 02:02:56;;;;;;;;;0.00;0.00;;;;;16.85;55.86;101754.00;5015264;28;9135;-39
2022/01/06 02:05:26;;;;;;;;;0.00;0.00;;;;;16.87;55.74;101764.56;5015618;28;9905;-38
2022/01/06 02:07:53;;;;;;;;;0.00;0.00;;;;;16.87;55.55;101767.22;5014643;28;8864;-38
2022/01/06 02:10:20;;;;;;;;;0.00;0.00;;;;;16.87;55.68;101772.50;5015549;28;9006;-38
2022/01/06 02:12:48;;;;;;;;;0.00;0.00;;;;;16.86;55.55;101781.25;5014862;28;9153;-39
2022/01/06 02:15:13;;;;;;;;;1.00;1.00;;;;;16.85;55.54;101784.75;5014236;28;9142;-38
2022/01/06 02:17:39;;;;;;;;;0.00;0.00;;;;;16.86;55.51;101792.69;5015256;28;9131;-39
2022/01/06 02:20:10;;;;;;;;;0.00;0.00;;;;;16.86;55.58;101803.25;5015208;28;8794;-38
2022/01/06 02:22:36;;;;;;;;;0.00;0.00;;;;;16.86;55.68;101807.63;5014499;28;8809;-38
2022/01/06 02:25:23;;;;;;;;;0.00;0.00;;;;;16.85;55.84;101803.22;5014933;28;9775;-38
2022/01/06 02:27:51;;;;;;;;;0.00;0.00;;;;;16.84;55.58;101804.06;5014184;28;9638;-38
2022/01/06 02:30:18;;;;;;;;;0.33;0.33;;;;;16.83;55.68;101797.06;5014975;28;9082;-39
2022/01/06 02:32:44;;;;;;;;;0.00;0.00;;;;;16.82;55.71;101796.16;5014531;28;9020;-38
2022/01/06 02:35:12;;;;;;;;;0.00;0.00;;;;;16.82;55.64;101796.16;5014175;28;9196;-38
2022/01/06 02:37:38;;;;;;;;;0.00;0.00;;;;;16.81;56.05;101796.13;5014993;28;8801;-38
2022/01/06 02:40:14;;;;;;;;;0.00;0.00;;;;;16.82;55.79;101792.63;5014427;28;9128;-38
2022/01/06 02:42:46;;;;;;;;;0.00;0.00;;;;;16.82;55.80;101787.38;5013801;28;9647;-38
2022/01/06 02:45:12;;;;;;;;;0.00;0.00;;;;;16.80;55.76;101797.88;5014550;28;9205;-38
2022/01/06 02:47:39;;;;;;;;;1.00;0.00;;;;;16.79;55.58;101784.69;5014633;28;9192;-38
2022/01/06 02:50:06;;;;;;;;;0.00;0.00;;;;;16.79;55.87;101797.88;5014189;28;8770;-38
2022/01/06 02:52:31;;;;;;;;;1.00;0.00;;;;;16.77;55.73;101792.59;5014269;28;9111;-38
2022/01/06 02:54:56;;;;;;;;;1.00;1.00;;;;;16.78;55.75;101794.38;5014222;28;9115;-38
2022/01/06 02:57:22;;;;;;;;;0.00;0.00;;;;;16.77;55.89;101800.50;5013954;28;8782;-39
2022/01/06 02:59:47;;;;;;;;;0.00;0.00;;;;;16.77;55.68;101796.97;5013989;28;9601;-39
2022/01/06 03:02:12;;;;;;;;;0.00;0.00;;;;;16.77;55.87;101807.50;5014431;28;8884;-37
2022/01/06 03:04:38;;;;;;;;;0.00;0.00;;;;;16.76;55.70;101805.72;5013398;28;8798;-38
2022/01/06 03:07:03;;;;;;;;;0.00;0.00;;;;;16.76;55.81;101805.72;5014178;28;8838;-37
2022/01/06 03:09:37;;;;;;;;;0.00;0.00;;;;;16.75;55.82;101802.25;5013951;28;8871;-38
2022/01/06 03:12:47;;;;;;;;;0.00;0.00;;;;;16.75;55.82;101804.88;5013469;28;8900;-38
2022/01/06 03:15:13;;;;;;;;;0.00;0.00;;;;;16.71;56.07;101800.44;5011747;28;9237;-38
2022/01/06 03:17:40;;;;;;;;;0.00;0.00;;;;;16.72;55.98;101806.59;5013402;28;9016;-38
2022/01/06 03:20:08;;;;;;;;;0.00;0.00;;;;;16.71;55.72;101800.44;5013843;28;9979;-37
2022/01/06 03:22:34;;;;;;;;;0.00;0.00;;;;;16.71;55.98;101796.91;5013444;28;9201;-37
2022/01/06 03:24:59;;;;;;;;;0.00;0.00;;;;;16.71;55.88;101810.09;5012974;28;9003;-38
2022/01/06 03:27:25;;;;;;;;;0.00;0.00;;;;;16.69;55.86;101801.25;5013975;28;8785;-38
2022/01/06 03:29:50;;;;;;;;;0.00;0.00;;;;;16.68;55.97;101805.69;5013425;28;8805;-37
2022/01/06 03:32:17;;;;;;;;;0.00;0.00;;;;;16.68;56.13;101797.78;5013070;28;8766;-38
2022/01/06 03:34:43;;;;;;;;;0.00;0.00;;;;;16.66;55.99;101803.88;5013217;28;8790;-39
2022/01/06 03:37:09;;;;;;;;;0.00;0.00;;;;;16.65;55.90;101810.00;5013980;28;9098;-38
2022/01/06 03:39:34;;;;;;;;;0.00;0.00;;;;;16.65;56.08;101805.63;5012706;28;9074;-38
2022/01/06 03:41:59;;;;;;;;;1.00;0.00;;;;;16.65;56.14;101816.16;5013462;28;8778;-38
2022/01/06 03:44:25;;;;;;;;;0.00;0.00;;;;;16.64;56.00;101816.16;5013738;28;8809;-38
2022/01/06 03:46:53;;;;;;;;;3.00;0.00;;;;;16.65;55.88;101817.91;5012416;28;8774;-38
2022/01/06 03:49:19;;;;;;;;;0.00;0.00;;;;;16.63;55.79;101820.53;5013492;28;8801;-38
2022/01/06 03:51:44;;;;;;;;;0.00;0.00;;;;;16.62;55.97;101818.78;5013328;28;9224;-38
2022/01/06 03:54:09;;;;;;;;;0.00;0.00;;;;;16.62;56.30;101825.78;5012853;28;8879;-38
2022/01/06 03:56:35;;;;;;;;;0.00;0.00;;;;;16.61;56.09;101822.25;5013697;28;8806;-37
2022/01/06 03:59:01;;;;;;;;;0.00;0.00;;;;;16.62;56.00;101831.94;5012563;28;8924;-38
2022/01/06 04:01:26;;;;;;;;;0.00;0.00;;;;;16.61;56.03;101824.03;5012788;28;8777;-38
2022/01/06 04:03:51;;;;;;;;;0.00;0.00;;;;;16.60;56.16;101830.16;5013001;28;8805;-39
2022/01/06 04:06:17;;;;;;;;;0.67;0.00;;;;;16.59;56.21;101829.28;5012657;28;8788;-38
2022/01/06 04:08:42;;;;;;;;;0.00;0.00;;;;;16.59;56.09;101837.19;5012890;28;9365;-38
2022/01/06 04:11:07;;;;;;;;;0.00;0.00;;;;;16.59;56.21;101828.38;5013029;28;8790;-39
2022/01/06 04:13:34;;;;;;;;;0.00;0.00;;;;;16.60;55.97;101835.44;5012631;28;8877;-38
2022/01/06 04:16:01;;;;;;;;;0.00;0.00;;;;;16.59;56.31;101839.81;5012578;28;8844;-38
2022/01/06 04:18:27;;;;;;;;;1.00;0.00;;;;;16.58;56.01;101837.16;5012235;28;9966;-38
2022/01/06 04:20:52;;;;;;;;;0.00;0.00;;;;;16.58;56.15;101840.69;5011643;28;9268;-37
2022/01/06 04:23:17;;;;;;;;;0.33;0.00;;;;;16.58;56.19;101842.44;5012768;28;8781;-38
2022/01/06 04:25:43;;;;;;;;;0.00;0.00;;;;;16.57;56.35;101838.91;5012620;28;8785;-38
2022/01/06 04:28:08;;;;;;;;;0.00;0.00;;;;;16.57;56.32;101838.03;5011964;28;8890;-38
2022/01/06 04:30:33;;;;;;;;;0.00;0.00;;;;;16.55;56.25;101843.25;5012831;28;8789;-37
2022/01/06 04:32:58;;;;;;;;;0.00;0.00;;;;;16.56;56.32;101846.78;5012538;28;8782;-38
2022/01/06 04:35:24;;;;;;;;;0.00;0.00;;;;;16.54;56.06;101849.38;5012029;28;8777;-38
2022/01/06 04:37:49;;;;;;;;;0.00;0.00;;;;;16.54;56.27;101849.38;5012402;28;8785;-38
2022/01/06 04:40:18;;;;;;;;;0.00;0.00;;;;;16.52;56.06;101853.75;5012715;28;8805;-38
2022/01/06 04:42:43;;;;;;;;;1.00;0.00;;;;;16.52;55.96;101856.41;5011790;28;8777;-37
2022/01/06 04:45:09;;;;;;;;;1.00;0.00;;;;;16.52;56.13;101861.66;5012439;28;9107;-37
2022/01/06 04:47:34;;;;;;;;;0.00;0.00;;;;;16.51;56.18;101862.53;5012607;28;8817;-38
2022/01/06 04:49:59;;;;;;;;;0.00;0.00;;;;;16.50;56.31;101862.50;5011486;28;8789;-37
2022/01/06 04:52:24;;;;;;;;;0.00;0.00;;;;;16.50;56.09;101862.50;5012447;28;8813;-38
2022/01/06 04:54:50;;;;;;;;;0.00;0.00;;;;;16.49;56.25;101860.75;5011978;28;8786;-38
2022/01/06 04:57:18;;;;;;;;;0.00;0.00;;;;;16.48;56.30;101858.97;5011267;28;8814;-38
2022/01/06 04:59:43;;;;;;;;;0.33;0.33;;;;;16.47;56.03;101863.34;5011629;28;8829;-38
2022/01/06 05:02:08;;;;;;;;;0.00;0.00;;;;;16.47;56.16;101863.34;5012278;28;9285;-38
2022/01/06 05:04:36;;;;;;;;;0.00;0.00;;;;;16.47;56.15;101870.38;5011554;28;8836;-38
2022/01/06 05:07:02;;;;;;;;;0.00;0.00;;;;;16.45;56.41;101870.38;5011972;28;8855;-38
2022/01/06 05:09:28;;;;;;;;;0.00;0.00;;;;;16.46;56.18;101874.75;5011314;28;9274;-38
2022/01/06 05:11:53;;;;;;;;;0.00;0.00;;;;;16.46;56.20;101877.38;5011724;28;10952;-37
2022/01/06 05:14:18;;;;;;;;;0.00;0.00;;;;;16.44;56.26;101874.75;5012021;28;8847;-38
2022/01/06 05:16:43;;;;;;;;;1.33;0.00;;;;;16.46;56.53;101879.16;5010689;28;8840;-39
2022/01/06 05:19:09;;;;;;;;;0.33;0.00;;;;;16.44;56.27;101876.50;5011893;28;8899;-37
2022/01/06 05:21:34;;;;;;;;;0.00;0.00;;;;;16.42;56.20;101880.88;5012047;28;8812;-38
2022/01/06 05:24:00;;;;;;;;;0.00;0.00;;;;;16.42;56.13;101884.38;5011016;28;8790;-38
2022/01/06 05:26:26;;;;;;;;;0.00;0.00;;;;;16.42;56.09;101876.47;5011960;28;8806;-39
2022/01/06 05:28:51;;;;;;;;;0.00;0.00;;;;;16.42;56.01;101884.38;5011380;28;9199;-38
2022/01/06 05:31:17;;;;;;;;;0.00;0.00;;;;;16.41;56.13;101887.00;5010871;28;9192;-38
2022/01/06 05:33:42;;;;;;;;;0.00;0.00;;;;;16.39;56.16;101886.97;5010780;28;8789;-38
2022/01/06 05:36:08;;;;;;;;;0.00;0.00;;;;;16.39;56.51;101886.06;5011689;28;8880;-39
2022/01/06 05:38:33;;;;;;;;;0.00;0.00;;;;;16.37;56.28;101877.28;5010824;28;8941;-38
2022/01/06 05:40:58;;;;;;;;;0.00;0.00;;;;;16.37;56.17;101879.91;5011414;28;9194;-37
2022/01/06 05:43:24;;;;;;;;;0.00;0.00;;;;;16.37;56.25;101883.44;5011713;28;8785;-38
2022/01/06 05:45:56;;;;;;;;;0.00;0.00;;;;;16.36;56.34;101884.28;5010741;28;8793;-38
2022/01/06 05:48:22;;;;;;;;;0.00;0.00;;;;;16.35;56.39;101890.41;5011454;28;9336;-38
2022/01/06 05:50:48;;;;;;;;;1.00;0.00;;;;;16.34;56.27;101891.31;5011242;28;9114;-38
2022/01/06 05:53:15;;;;;;;;;0.00;0.00;;;;;16.35;56.04;101892.16;5010725;28;9315;-39
2022/01/06 05:55:40;;;;;;;;;0.00;0.00;;;;;16.33;56.21;101894.78;5011083;28;8784;-38
2022/01/06 05:58:05;;;;;;;;;0.00;0.00;;;;;16.32;56.55;101900.91;5011428;28;9346;-37
2022/01/06 06:00:30;;;;;;;;;0.67;0.00;;;;;16.31;56.29;101900.88;5010798;28;8824;-37
2022/01/06 06:02:56;;;;;;;;;0.00;0.00;;;;;16.32;56.46;101902.66;5010886;28;8882;-38
2022/01/06 06:05:21;;;;;;;;;0.00;0.00;;;;;16.30;56.48;101905.28;5011532;28;8782;-37
2022/01/06 06:07:46;;;;;;;;;0.00;0.00;;;;;16.29;56.05;101906.16;5010473;28;8979;-38
2022/01/06 06:10:14;;;;;;;;;0.00;0.00;;;;;16.28;56.40;101912.28;5011414;28;8794;-39
2022/01/06 06:12:40;;;;;;;;;0.00;0.00;;;;;16.29;56.27;101910.53;5010443;28;8786;-38
2022/01/06 06:15:06;;;;;;;;;0.67;0.00;;;;;16.28;56.04;101914.00;5010752;28;9253;-39
2022/01/06 06:17:31;;;;;;;;;0.00;0.00;;;;;16.28;56.04;101916.66;5011097;28;8801;-38
2022/01/06 06:19:59;;;;;;;;;0.00;0.00;;;;;16.28;56.29;101927.19;5009896;28;8956;-37
2022/01/06 06:22:24;;;;;;;;;0.00;0.00;;;;;16.25;56.53;101917.50;5011231;28;8770;-38
2022/01/06 06:24:49;;;;;;;;;0.00;0.00;;;;;16.26;56.20;101926.31;5010513;28;9187;-38
2022/01/06 06:27:17;;;;;;;;;0.00;0.00;;;;;16.26;56.09;101921.91;5010624;28;8818;-38
2022/01/06 06:29:43;;;;;;;;;0.00;0.00;;;;;16.26;56.27;101931.56;5011236;28;8797;-37
2022/01/06 06:32:08;;;;;;;;;0.00;0.00;;;;;16.25;56.51;101938.59;5011224;28;9317;-39
2022/01/06 06:34:34;;;;;;;;;1.00;1.00;;;;;16.24;56.27;101934.16;5010430;28;8805;-41
2022/01/06 06:36:59;;;;;;;;;0.00;0.00;;;;;16.24;56.44;101944.72;5011088;28;8786;-38
2022/01/06 06:39:24;;;;;;;;;0.00;0.00;;;;;16.25;56.23;101940.31;5010913;28;8813;-39
2022/01/06 06:41:50;;;;;;;;;0.00;0.00;;;;;16.25;56.38;101948.22;5010089;28;9518;-38
2022/01/06 06:44:15;;;;;;;;;0.00;0.00;;;;;16.23;56.36;101953.47;5012949;28;8907;-39
2022/01/06 06:46:40;;;;;;;;;0.00;0.00;;;;;16.23;55.95;101949.97;5014060;28;8786;-39
2022/01/06 06:49:05;;;;;;;;;0.00;0.00;;;;;16.22;56.26;101956.09;5013962;28;8801;-38
2022/01/06 06:51:31;;;;;;;;;0.00;0.00;;;;;16.22;56.13;101953.47;5014692;28;8778;-37
2022/01/06 06:53:56;;;;;;;;;0.00;0.00;;;;;16.21;56.47;101957.84;5014285;28;8797;-38
2022/01/06 06:56:21;;;;;;;;;0.00;0.00;;;;;16.20;56.09;101961.31;5013680;28;8801;-39
2022/01/06 06:58:47;;;;;;;;;0.00;0.00;;;;;16.19;56.07;101951.69;5014252;28;8821;-38
2022/01/06 07:01:13;;;;;;;;;0.00;0.00;;;;;16.19;56.27;101962.22;5014530;28;8897;-38
2022/01/06 07:03:38;;;;;;;;;0.00;0.00;;;;;16.19;56.25;101963.97;5013984;28;8824;-38
2022/01/06 07:06:03;;;;;;;;;0.00;0.00;;;;;16.19;56.27;101970.13;5014178;28;10165;-37
2022/01/06 07:08:29;;;;;;;;;0.00;0.00;;;;;16.18;56.20;101962.19;5014168;28;8794;-38
2022/01/06 07:10:54;;;;;;;;;0.00;0.00;;;;;16.18;56.08;101965.69;5013126;28;8785;-38
2022/01/06 07:13:20;;;;;;;;;0.00;0.00;;;;;16.18;56.14;101962.19;5014042;28;8781;-38
2022/01/06 07:15:46;;;;;;;;;0.00;0.00;;;;;16.18;56.13;101964.81;5013949;28;8884;-38
2022/01/06 07:18:11;;;;;;;;;0.00;0.00;;;;;16.17;56.34;101963.91;5013480;28;8825;-38
2022/01/06 07:20:37;;;;;;;;;0.00;0.00;;;;;16.17;56.07;101956.00;5014342;28;9046;-38
2022/01/06 07:23:03;;;;;;;;;0.00;0.00;;;;;16.15;56.29;101963.03;5013019;28;8790;-38
2022/01/06 07:25:28;;;;;;;;;0.00;0.00;;;;;16.16;56.20;101958.66;5014150;28;8798;-39
2022/01/06 07:27:53;;;;;;;;;0.00;0.00;;;;;16.16;56.31;101967.41;5013562;28;8802;-38
2022/01/06 07:30:19;;;;;;;;;1.00;1.00;;;;;16.16;56.58;101966.53;5013274;28;8805;-38
2022/01/06 07:32:47;;;;;;;;;0.00;0.00;;;;;16.15;56.58;101963.03;5013543;28;8774;-38
2022/01/06 07:35:13;;;;;;;;;0.00;0.00;;;;;16.17;56.80;101973.56;5013546;28;9142;-38
2022/01/06 07:37:38;;;;;;;;;1.00;0.00;;;;;16.17;57.08;101966.56;5013018;28;9141;-39
2022/01/06 07:40:06;;;;;;;;;0.00;0.00;;;;;16.20;57.69;101970.97;5013478;28;10593;-39
2022/01/06 07:42:31;;;;;;;;;0.00;0.00;;;;;16.22;57.76;101977.19;5012184;28;8956;-38
2022/01/06 07:44:59;;;;;;;;;0.00;0.00;;;;;16.23;58.48;101986.88;5012742;28;9127;-38
2022/01/06 07:47:24;;;;;;;;;0.00;0.00;;;;;16.25;58.85;101990.41;5013459;28;8794;-39
2022/01/06 07:49:49;;;;;;;;;0.33;0.00;;;;;16.26;59.21;101990.44;5013061;28;9168;-38
2022/01/06 07:52:15;;;;;;;;;1.00;1.00;;;;;16.27;59.89;101986.91;5011954;28;9091;-38
2022/01/06 07:54:43;;;;;;;;;0.00;0.00;;;;;16.39;59.43;101994.13;5013707;28;8791;-37
2022/01/06 07:57:09;;;;;;;;;1.00;1.00;;;;;16.41;60.01;101995.06;5004684;28;8809;-37
2022/01/06 07:59:34;;;;;;;;;3.33;2.33;;;;;16.42;60.54;101997.72;5012136;28;9001;-38
2022/01/06 08:02:00;;;;;;;;;2.00;1.00;;;;;16.44;61.22;101993.38;5012567;28;8896;-38
2022/01/06 08:04:28;;;;;;;;;1.67;1.00;;;;;16.47;61.47;102000.44;5012946;28;8810;-38
2022/01/06 08:06:53;;;;;;;;;1.00;1.00;;;;;16.46;62.18;101997.78;5012210;28;8777;-38
2022/01/06 08:09:18;;;;;;;;;1.00;1.00;;;;;16.42;61.66;102007.38;5012404;28;9131;-38
2022/01/06 08:11:45;;;;;;;;;2.33;2.00;;;;;16.41;61.93;102005.59;5012726;28;8863;-37
2022/01/06 08:14:10;;;;;;;;;2.00;2.00;;;;;16.43;62.58;102010.03;5010885;28;8841;-37
2022/01/06 08:16:35;;;;;;;;;2.00;2.00;;;;;16.45;62.73;102004.78;5012537;28;9338;-37
2022/01/06 08:19:00;;;;;;;;;1.00;1.00;;;;;16.45;62.52;101999.53;5012449;28;8825;-37
2022/01/06 08:21:26;;;;;;;;;3.00;3.00;;;;;16.47;62.73;102004.81;5010914;28;8820;-37
2022/01/06 08:23:51;;;;;;;;;1.00;1.00;;;;;16.48;62.44;102011.84;5012111;28;8802;-38
2022/01/06 08:26:16;;;;;;;;;4.00;3.00;;;;;15.71;52.12;102011.38;5011274;28;8841;-37
2022/01/06 08:28:46;;;;;;;;;3.00;2.33;;;;;14.26;49.73;102016.81;5011785;28;8809;-37
2022/01/06 08:31:13;;;;;;;;;2.00;2.00;;;;;13.32;48.08;102030.88;5012574;28;8793;-37
2022/01/06 08:33:38;;;;;;;;;5.00;3.25;;;;;12.85;48.35;102029.41;5010866;28;9497;-37
2022/01/06 08:36:04;;;;;;;;;2.50;2.50;;;;;12.67;47.93;102025.31;5011757;28;9332;-37
2022/01/06 08:38:29;;;;;;;;;2.00;2.00;;;;;12.48;48.23;102035.19;5011896;28;8817;-37
2022/01/06 08:40:57;;;;;;;;;2.50;2.50;;;;;12.43;48.69;102028.03;5011394;28;8801;-37
2022/01/06 08:43:27;;;;;;;;;1.00;1.00;;;;;13.03;47.20;102026.47;5010753;28;8797;-38
2022/01/06 08:45:59;;;;;;;;;2.25;2.25;;;;;13.76;46.96;102032.13;5011835;28;9448;-37
2022/01/06 08:48:25;;;;;;;;;1.00;1.00;;;;;14.50;49.72;102023.63;5011287;28;9328;-37
2022/01/06 08:50:54;;;;;;;;;3.00;1.00;;;;;15.11;53.26;102032.88;5012057;28;9403;-38
2022/01/06 08:53:21;;;;;;;;;2.75;2.75;;;;;15.64;56.21;102030.53;5009960;28;9356;-37
2022/01/06 08:55:47;;;;;;;;;1.75;1.75;;;;;16.04;57.46;102025.19;5010810;28;9392;-37
2022/01/06 08:58:15;;;;;;;;;2.00;1.33;;;;;16.25;56.78;102024.66;5011538;28;9595;-37
2022/01/06 09:00:41;;;;;;;;;3.33;2.00;;;;;16.38;58.20;102019.59;5011724;28;8898;-37
2022/01/06 09:03:13;;;;;;;;;1.00;1.00;;;;;16.47;57.38;102025.88;5009652;28;9199;-36
2022/01/06 09:05:39;;;;;;;;;1.00;1.00;;;;;16.47;58.09;102018.88;5011264;28;8986;-38
2022/01/06 09:08:05;;;;;;;;;3.00;1.00;;;;;16.48;58.38;102020.66;5011191;28;9325;-37
2022/01/06 09:10:33;;;;;;;;;1.67;1.67;;;;;16.47;58.40;102021.50;5011106;28;9251;-38
2022/01/06 09:12:59;;;;;;;;;1.00;1.00;;;;;16.49;59.19;102025.06;5009753;28;9334;-39
2022/01/06 09:15:25;;;;;;;;;1.67;1.67;;;;;16.50;59.17;102029.47;5011339;28;9480;-37
2022/01/06 09:17:50;;;;;;;;;1.00;1.00;;;;;16.50;59.53;102021.56;5010523;28;9387;-38
2022/01/06 09:20:16;;;;;;;;;2.75;1.00;;;;;16.55;59.45;102021.63;5011503;28;9384;-37
2022/01/06 09:22:42;;;;;;;;;2.00;2.00;;;;;16.57;59.33;102028.72;5008596;28;8819;-37
2022/01/06 09:25:09;;;;;;;;;0.00;0.00;;;;;16.58;59.50;102027.88;5009641;28;8806;-38
2022/01/06 09:27:34;;;;;;;;;2.00;2.00;;;;;16.57;59.81;102023.47;5009981;28;9180;-38
2022/01/06 09:30:00;;;;;;;;;1.00;1.00;;;;;16.56;59.82;102033.97;5009546;28;9355;-38
2022/01/06 09:32:28;;;;;;;;;2.00;2.00;;;;;16.57;59.98;102028.72;5009335;28;8826;-38
2022/01/06 09:34:54;;;;;;;;;2.67;2.00;;;;;16.59;59.84;102034.94;5009788;28;8825;-37
2022/01/06 09:37:19;;;;;;;;;3.33;2.67;;;;;16.58;60.03;102025.25;5010300;28;10157;-38
2022/01/06 09:39:47;;;;;;;;;1.00;1.00;;;;;16.59;59.82;102032.28;5011022;28;8832;-37
2022/01/06 09:42:12;;;;;;;;;3.33;1.67;;;;;16.60;60.03;102020.91;5007043;28;8802;-37
2022/01/06 09:44:39;;;;;;;;;1.00;1.00;;;;;16.69;59.72;102028.94;5010127;28;9534;-39
2022/01/06 09:47:06;;;;;;;;;2.00;2.00;;;;;16.84;58.64;102038.81;5011350;28;8810;-38
2022/01/06 09:49:35;;;;;;;;;1.00;1.00;;;;;16.83;59.27;102039.72;5011331;28;9179;-38
2022/01/06 09:52:00;;;;;;;;;1.00;1.00;;;;;16.82;59.19;102053.75;5007181;28;9212;-41
2022/01/06 09:54:25;;;;;;;;;1.00;1.00;;;;;16.88;58.79;102049.44;5018146;28;9150;-37
2022/01/06 09:56:51;;;;;;;;;3.67;1.67;;;;;16.94;58.31;102043.38;5010356;28;8793;-37
2022/01/06 09:59:16;;;;;;;;;1.67;1.67;;;;;17.03;57.32;102045.25;5008858;28;8814;-37
2022/01/06 10:01:41;;;;;;;;;0.33;0.33;;;;;17.18;57.08;102051.63;4994157;28;8940;-38
2022/01/06 10:04:29;;;;;;;;;1.00;1.00;;;;;17.32;57.02;102043.94;5010784;28;8895;-37
2022/01/06 10:07:08;;;;;;;;;0.00;0.00;;;;;17.61;56.09;102042.56;5009515;28;8828;-38
2022/01/06 10:09:36;;;;;;;;;1.00;1.00;;;;;17.68;55.90;102047.03;5010743;28;9188;-37
2022/01/06 10:12:08;;;;;;;;;2.00;2.00;;;;;17.72;56.07;102035.66;5009428;28;9150;-38
2022/01/06 10:14:41;;;;;;;;;2.00;1.00;;;;;17.80;55.99;102041.03;5010442;28;10073;-37
2022/01/06 10:17:07;;;;;;;;;1.00;1.00;;;;;17.79;55.89;102033.94;5010641;28;9290;-39
2022/01/06 10:19:35;;;;;;;;;1.67;1.67;;;;;17.65;56.10;102039.09;5010401;28;9162;-37
2022/01/06 10:22:01;;;;;;;;;1.00;0.00;;;;;17.56;56.40;102036.28;5012898;28;11474;-38
2022/01/06 10:24:28;;;;;;;;;0.00;0.00;;;;;17.52;56.53;102038.88;5015274;28;9212;-38
2022/01/06 10:26:59;;;;;;;;;1.00;0.67;;;;;17.51;56.96;102040.63;5013088;28;8790;-38
2022/01/06 10:29:30;;;;;;;;;1.00;1.00;;;;;17.50;56.71;102037.97;5014260;28;9055;-38
2022/01/06 10:32:08;;;;;;;;;1.67;1.67;;;;;17.62;56.44;102035.53;5012741;28;9035;-38
2022/01/06 10:34:35;;;;;;;;;1.00;0.00;;;;;17.82;55.48;102034.88;5013037;28;9216;-38
2022/01/06 10:37:02;;;;;;;;;1.00;1.00;;;;;17.84;55.13;102035.78;5013571;28;9226;-37
2022/01/06 10:39:40;;;;;;;;;1.00;1.00;;;;;17.83;55.35;102033.13;5013425;28;9329;-38
2022/01/06 10:42:05;;;;;;;;;1.00;1.00;;;;;17.88;55.06;102034.06;5012212;28;10109;-38
2022/01/06 10:44:31;;;;;;;;;1.00;1.00;;;;;18.00;55.07;102035.91;5013466;28;9296;-38
2022/01/06 10:46:57;;;;;;;;;1.00;1.00;;;;;18.06;54.57;102036.00;5013583;28;8815;-37
2022/01/06 10:49:22;;;;;;;;;0.00;0.00;;;;;18.03;55.00;102030.69;5012810;28;8801;-38
2022/01/06 10:51:50;;;;;;;;;1.00;1.00;;;;;17.99;54.74;102027.13;5012025;28;9226;-38
2022/01/06 10:54:22;;;;;;;;;1.00;1.00;;;;;17.95;54.97;102030.63;5013015;28;8814;-36
2022/01/06 10:57:07;;;;;;;;;0.00;0.00;;;;;17.90;55.54;102036.72;5013434;28;9058;-38
2022/01/06 10:59:34;;;;;;;;;1.00;1.00;;;;;17.87;55.66;102042.84;5013452;28;9049;-37
2022/01/06 11:02:01;;;;;;;;;0.00;0.00;;;;;17.86;55.83;102043.72;5011537;28;9050;-37
2022/01/06 11:04:27;;;;;;;;;1.00;1.00;;;;;17.87;55.66;102040.22;5012931;28;8915;-38
2022/01/06 11:06:53;;;;;;;;;0.00;0.00;;;;;17.82;55.60;102028.69;5011985;28;9039;-37
2022/01/06 11:09:22;;;;;;;;;1.00;1.00;;;;;17.88;55.86;102030.53;5012555;28;8982;-37
2022/01/06 11:14:26;;;;;;;;;1.33;1.00;;;;;17.94;55.92;102025.31;5013331;28;9208;-38
2022/01/06 11:16:51;;;;;;;;;1.67;1.00;;;;;17.97;55.56;102020.94;5011569;28;9168;-37
2022/01/06 11:19:16;;;;;;;;;0.33;0.33;;;;;18.05;55.37;102023.66;5012949;28;9288;-39
2022/01/06 11:21:44;;;;;;;;;2.00;1.00;;;;;17.97;55.34;102025.31;5012200;28;8825;-38
2022/01/06 11:24:17;;;;;;;;;1.00;1.00;;;;;17.83;55.64;102023.44;5012075;28;8829;-39
2022/01/06 11:26:55;;;;;;;;;1.00;1.00;;;;;17.76;55.78;102026.91;5012729;28;9131;-38
2022/01/06 11:29:25;;;;;;;;;0.67;0.00;;;;;17.71;55.71;102023.31;5011859;28;9067;-38
2022/01/06 11:31:51;;;;;;;;;0.00;0.00;;;;;17.69;56.24;102018.88;5010104;28;9053;-38
2022/01/06 11:34:18;;;;;;;;;1.33;1.33;;;;;17.64;55.86;102018.81;5012759;28;9284;-38
2022/01/06 11:36:50;;;;;;;;;0.00;0.00;;;;;17.60;56.30;102022.28;5011653;28;8806;-39
2022/01/06 11:39:24;;;;;;;;;0.33;0.33;;;;;17.62;56.21;102015.25;5015258;28;9253;-37
2022/01/06 11:41:51;;;;;;;;;0.00;0.00;;;;;17.66;56.05;102018.81;5003280;28;9268;-39
2022/01/06 11:44:19;;;;;;;;;1.00;1.00;;;;;17.69;56.23;102016.25;5012245;28;9121;-39
2022/01/06 11:46:48;;;;;;;;;1.33;1.00;;;;;17.68;55.90;102019.75;5012095;28;9268;-39